Sparta, WI (54656)

1:12 AM CDT on August 29, 2015 (GMT -0500)
Sparta-Fort McCoy | | Change Station
CLOSE
Current Station
Airport
Location: Sparta,
Elevation: 837 ft
Nearby Weather Stations

Elev 837 ft 43.96 °N, 90.74 °W | Updated 17 minutes ago

Overcast
Overcast
58 °F
Feels Like 58 °F
N
6
Wind Variable Wind from East

Today
High -- | Low -- °F
--% Chance of Precip.
Yesterday
High -- | Low -- °F
Precip. -- in
6:22 AM 7:44 PM
Full, 100% visible
Pressure 30.04 in
Visibility 10.0 miles
Clouds Scattered Clouds 1000 ft
Mostly Cloudy 5000 ft
Overcast 6500 ft
Dew Point 57 °F
Humidity 95%
Rainfall 0.00 in
Snow Depth Not available.
UV 0 out of 12
Pollen 2.70 out of 12
Air Quality Not available.
Flu Activity Not available.
METAR KCMY 290555Z AUTO 09005KT 10SM SCT010 BKN050 OVC065 15/14 A3004 RMK AO2 60004 T01450137 10145 20138 401830135
Pressure 30.04 in
Visibility 10.0 miles
Clouds Scattered Clouds 1000 ft
Mostly Cloudy 5000 ft
Overcast 6500 ft
Dew Point 57 °F
Humidity 95%
Rainfall 0.00 in
Snow Depth Not available.
UV 0 out of 12
Pollen 2.70 out of 12
Air Quality Not available.
Flu Activity Not available.
METAR KCMY 290555Z AUTO 09005KT 10SM SCT010 BKN050 OVC065 15/14 A3004 RMK AO2 60004 T01450137 10145 20138 401830135

10-Day Weather Forecast

×

Almanac

Astronomy

Aug. 29, 2015 Rise Set
Actual Time
Civil Twilight
Nautical Twilight
Astronomical Twilight
Moon
Length of Visible Light
Length of Day
Tomorrow will be .
, % of the Moon is Illuminated

Today's Extremes

State Highs State Lows

Community

WunderPhotos

Upload Photos

1,850,622 photos uploaded!

WunderBlogs® & News

Nearby

Air Quality

  Air Quality AQ Index Pollutant
Not available.

Snow Depth

Station Depth Elevation

Earthquake Activity

City Distance Mag. Time & Date
Minimum magnitude displayed is 2.5.

Coastal Water Temperatures

Place Temperature

Stations

Nearby Weather Stations

Station Location Temp. Windchill Dew Point Humidity Wind Precip. Elev Updated Type